Weather observations for the past three days for
Canby Airfield
Metric (Imperial)
Date Time (cdt) Wind (kph) Vis. (km) Weather Sky Cond. Temperature (ºC) Relative Humidity Wind Chill (°C) Heat Index (°C) Pressure Precipitation (cm)
Air Dwpt 6 hour altimeter (cm) sea level (mb) 1 hr 3 hr 6 hr
Max. Min.
04 11:35 NW 31 G 46 16.09 Partly Cloudy SCT100 13.2 -3 33% 75.29 0.0
04 11:15 NW 41 G 54 16.09 Fair and Breezy CLR 13.2 -3.6 31% 75.26 0.0
04 10:55 NW 39 G 52 16.09 Fair and Breezy CLR 14.5 -2.1 32% 75.26 0.0
04 10:35 NW 41 G 54 16.09 Fair and Breezy CLR 14.5 0.9 40% 75.23 0.0
04 10:15 NW 26 G 52 16.09 Fair CLR 14.4 0.7 40% 75.18 0.0
04 09:55 NW 39 G 52 16.09 Fair and Breezy CLR 14.1 -0.2 38% 75.18 0.0
04 09:35 NW 39 G 54 16.09 Fair and Breezy CLR 14.2 0.1 38% 75.16 0.0
04 09:15 NW 26 G 43 16.09 Fair CLR 13.7 2 45% 75.16 0.0
04 08:55 NW 31 G 39 16.09 Fair CLR 13.5 1.2 43% 75.16 0.0
04 08:35 NW 28 16.09 Fair CLR 13 1.1 45% 75.13 0.0
04 08:15 NW 19 G 30 16.09 Fair CLR 12.3 2.7 52% 75.13 0.0
04 07:55 W 13 16.09 Fair CLR 11.6 3.2 57% 75.13 0.0
04 07:35 W 13 16.09 Fair CLR 11.2 3.2 58% 75.13 0.0
04 07:15 W 11 16.09 Fair CLR 10.6 3.3 61% 75.11 0.0
04 06:55 W 13 16.09 Fair CLR 10.1 3.1 16 10.1 62% 75.08 0.0
04 06:35 W 15 16.09 Fair CLR 10.7 3 59% 75.06 0.0
04 06:15 NW 17 16.09 Fair CLR 11.4 3.1 57% 75.06 0.0
04 05:55 NW 20 G 44 16.09 Fair CLR 13 3.1 51% 75.03 0.0
04 05:35 W 24 16.09 Fair CLR 13.8 3.4 50% 74.96 0.0
04 05:15 W 22 G 33 16.09 Fair CLR 14.5 2.5 45% 74.96 0.0
04 04:55 W 28 G 39 16.09 Fair CLR 14.7 1.3 40% 74.9 0.0
04 04:35 W 30 G 46 16.09 Fair CLR 16 0.2 34% 74.88 0.0
04 04:15 SW 37 G 54 16.09 Fair and Breezy CLR 16 -0.1 34% 74.85 0.0
04 03:55 SW 31 G 44 16.09 Fair CLR 15.6 -0.9 33% 74.85 0.0
04 03:35 SW 30 G 44 16.09 Fair CLR 15.3 -1 33% 74.88 0.0
04 03:15 SW 26 G 41 16.09 Fair CLR 15.1 -1 33% 74.9 0.0
04 02:55 SW 26 G 39 16.09 Fair CLR 14.6 -1 34% 74.93 0.0
04 02:35 SW 26 G 39 16.09 Fair CLR 14.6 -1.3 34% 74.96 0.0
04 02:15 SW 24 G 39 16.09 Fair CLR 15 -1.6 32% 74.98 0.0
04 01:55 SW 26 G 35 16.09 Fair CLR 14.7 -1.6 33% 75.01 0.0
04 01:35 SW 22 G 41 16.09 Fair CLR 14.2 -1.5 34% 75.03 0.0
04 01:15 SW 28 G 37 16.09 Fair CLR 14.5 -1.6 33% 75.06 0.0
04 00:55 SW 24 G 30 16.09 Fair CLR 14.5 -1.8 22.1 13.6 33% 75.06 0.0
04 00:35 SW 20 G 30 16.09 Fair CLR 13.7 -2.3 33% 75.11 0.0
04 00:15 SW 19 G 28 16.09 Fair CLR 14.4 -3 30% 75.16 0.0
03 23:55 SW 19 16.09 Fair CLR 13.6 -2.7 32% 75.18 0.0
03 23:35 SW 15 16.09 Fair CLR 14 -2.3 33% 75.21 0.0
03 23:15 S 11 16.09 Fair CLR 14 -2.5 32% 75.23 0.0
03 22:55 SW 9 16.09 Fair CLR 14.3 -2.6 31% 75.26 0.0
03 22:35 SW 13 16.09 Fair CLR 14.5 -3 30% 75.29 0.0
03 22:15 SW 11 16.09 Fair CLR 14 -2.6 32% 75.31 0.0
03 21:55 SW 9 16.09 Fair CLR 14.6 -2.5 31% 75.34 0.0
03 21:35 SW 11 16.09 Fair CLR 15.7 -2.5 29% 75.36 0.0
03 21:15 SW 11 16.09 Fair CLR 16 -2.6 28% 75.36 0.0
03 20:55 SW 9 16.09 Fair CLR 16 -2.7 28% 75.39 0.0
03 20:35 W 7 16.09 Fair CLR 17.2 -2.4 26% 75.39 0.0
03 20:15 W 9 16.09 Fair CLR 19.2 -2.4 23% 75.41 0.0
03 19:55 W 11 16.09 Fair CLR 20.5 -2.6 21% 75.41 0.0
03 19:35 W 19 16.09 Fair CLR 21 -3.7 19% 75.41 0.0
03 19:15 W 24 16.09 Fair CLR 21.8 -4.5 17% 75.41 0.0
03 18:55 W 19 16.09 Fair CLR 22.1 -4.4 22.9 19.7 17% 75.44 0.0
03 18:35 W 17 16.09 Fair CLR 22.2 -4 17% 75.44 0.0
03 18:15 W 17 16.09 Fair CLR 22.5 -5.7 15% 75.46 0.0
03 17:55 W 20 G 35 16.09 Fair CLR 22.5 -5.4 15% 75.51 0.0
03 17:35 W 22 G 31 16.09 Fair CLR 22.6 -4.1 16% 75.51 0.0
03 17:15 W 22 G 33 16.09 Fair CLR 22.5 -3.7 17% 75.51 0.0
03 16:55 NW 24 16.09 Fair CLR 22.6 -2.3 19% 75.51 0.0
03 16:35 NW 24 G 30 16.09 Fair CLR 22.4 -2.2 19% 75.57 0.0
03 16:15 W 24 G 30 16.09 Fair CLR 22.7 -4.4 16% 75.57 0.0
03 15:55 NW 17 G 30 16.09 Fair CLR 22.5 -1.6 20% 75.59 0.0
03 15:35 NW 20 G 33 16.09 Fair CLR 22.2 -1.7 20% 75.64 0.0
03 15:15 NW 20 G 31 16.09 Fair CLR 22 -1 22% 75.64 0.0
03 14:55 W 15 G 28 16.09 Fair CLR 21.6 -0.7 23% 75.67 0.0
03 14:35 W 13 G 39 16.09 Fair CLR 21.6 0.1 24% 75.69 0.0
03 14:15 NW 15 G 31 16.09 Fair CLR 21.6 0.7 25% 75.69 0.0
03 13:55 NW 19 16.09 Fair CLR 20.7 0.8 27% 75.72 0.0
03 13:35 W 19 G 30 16.09 Fair CLR 20.4 0.6 27% 75.74 0.0
03 13:15 W 17 G 30 16.09 Fair CLR 20.2 0.5 27% 75.79 0.0
03 12:55 NW 13 G 28 16.09 Fair CLR 19.4 0.7 19.4 9.5 29% 75.79 0.0
03 12:35 NW 20 G 30 16.09 Fair CLR 19.2 0.4 28% 75.82 0.0
03 12:15 NW 20 G 33 16.09 Fair CLR 18.7 0.3 29% 75.84 0.0
03 11:55 NW 22 G 31 16.09 Fair CLR 18.6 0.9 31% 75.84 0.0
03 11:35 N 24 G 35 16.09 Fair CLR 18.1 0.9 32% 75.84 0.0
03 11:15 NW 17 G 30 16.09 Fair CLR 17.8 0.9 32% 75.84 0.0
03 10:55 NW 19 16.09 Fair CLR 17.5 1 33% 75.87 0.0
03 10:35 NW 17 G 26 16.09 Fair CLR 16.7 1.1 35% 75.87 0.0
03 10:15 NW 19 16.09 Fair CLR 16 1.4 37% 75.87 0.0
03 09:55 NW 22 16.09 Fair CLR 15.2 1.9 41% 75.87 0.0
03 09:35 NW 22 16.09 Fair CLR 14.6 2.2 43% 75.87 0.0
03 09:15 NW 17 G 30 16.09 Fair CLR 13.5 2.2 47% 75.84 0.0
03 08:55 NW 20 G 35 16.09 Fair CLR 12.4 2.4 51% 75.87 0.0
03 08:35 NW 24 G 35 16.09 Fair CLR 12.1 3 54% 75.84 0.0
03 08:15 NW 26 G 35 16.09 Fair CLR 11.4 2.9 56% 75.84 0.0
03 07:55 NW 22 G 30 16.09 Fair CLR 11 3 58% 75.82 0.0
03 07:35 NW 19 G 26 16.09 Fair CLR 10.3 3.1 61% 75.79 0.0
03 07:15 NW 20 G 28 16.09 Fair CLR 9.8 3 63% 7 75.77 0.0
03 06:55 NW 19 16.09 Fair CLR 9.5 2.8 15 9.5 63% 7 75.77 0.0
03 06:35 NW 19 16.09 Fair CLR 9.6 2.7 62% 7 75.74 0.0
03 06:15 NW 20 16.09 Fair CLR 9.8 2.6 61% 7 75.69 0.0
03 05:55 W 22 16.09 Fair CLR 10.1 2.5 60% 75.69 0.0
03 05:35 NW 19 16.09 Fair CLR 10.2 2.3 58% 75.69 0.0
03 05:15 NW 22 16.09 Fair CLR 10.3 2.4 58% 75.69 0.0
03 04:55 NW 20 16.09 Fair CLR 10.5 2.5 58% 75.67 0.0
03 04:35 NW 19 16.09 Fair CLR 10.8 2.5 57% 75.64 0.0
03 04:15 NW 19 G 28 16.09 Fair CLR 11 2.5 56% 75.64 0.0
03 03:55 NW 19 16.09 Fair CLR 11.3 2.5 55% 75.62 0.0
03 03:35 NW 20 16.09 Fair CLR 11.4 2.5 55% 75.62 0.0
03 03:15 NW 22 G 28 16.09 Fair CLR 12 2.5 53% 75.62 0.0
03 02:55 W 17 G 30 16.09 Fair CLR 12.5 2.5 51% 75.59 0.0
03 02:35 W 20 16.09 Fair CLR 13.1 2.4 49% 75.59 0.0
03 02:15 W 24 G 31 16.09 Fair CLR 14 2.4 46% 75.59 0.0
03 01:55 W 24 G 37 16.09 Fair CLR 14.7 2.4 44% 75.59 0.0
03 01:35 W 20 16.09 Fair CLR 14.5 2.5 45% 75.57 0.0
03 01:15 W 15 16.09 Fair CLR 14.6 2.5 44% 75.54 0.0
03 00:55 W 15 16.09 Fair CLR 14.9 2.3 19.8 14.8 43% 75.54 0.0
03 00:35 W 15 16.09 Partly Cloudy SCT100 15.5 2.3 41% 75.54 0.0
03 00:15 W 19 16.09 Mostly Cloudy BKN100 16.2 1.5 37% 75.54 0.0
02 23:55 SW 19 16.09 Mostly Cloudy BKN100 16.5 0.4 34% 75.54 0.0
02 23:35 W 19 16.09 Overcast OVC100 17.1 0 32% 75.54 0.0
02 23:15 SW 22 G 30 16.09 Overcast OVC100 17.4 0 31% 75.51 0.0
02 22:55 SW 13 16.09 Overcast OVC100 17.3 -1 29% 75.51 0.0
02 22:35 SW 15 16.09 Overcast OVC100 17.3 -1.6 28% 75.57 0.0
02 22:15 S 11 16.09 Mostly Cloudy SCT080 BKN100 17.5 -1.8 27% 75.59 0.0
02 21:55 SW 11 16.09 Mostly Cloudy SCT065 SCT080 BKN110 17.9 -2 26% 75.62 0.0
02 21:35 SW 6 16.09 Mostly Cloudy BKN110 17.8 -0.6 29% 75.62 0.0
02 21:15 SW 7 16.09 Mostly Cloudy SCT075 SCT090 BKN120 18.4 -2.6 24% 75.62 0.0
02 20:55 W 17 G 26 16.09 Overcast SCT049 SCT075 OVC090 18.6 -0.6 27% 75.64 0.0
02 20:35 SW 6 16.09 Overcast SCT070 SCT080 OVC100 19 -3.5 22% 75.64 0.0
02 20:15 S 13 16.09 Mostly Cloudy BKN110 19.2 -3.9 21% 75.62 0.0
02 19:55 S 11 16.09 Mostly Cloudy BKN110 19.6 -4 20% 75.64 0.0
02 19:35 SW 11 16.09 Mostly Cloudy BKN120 19.5 -4.2 20% 75.67 0.0
02 19:15 SW 17 16.09 Overcast OVC110 19.7 -4.5 19% 75.69 0.0
02 18:55 SW 17 G 28 16.09 Overcast OVC110 20 -4.3 20.8 18.9 19% 75.74 0.0
02 18:35 SW 19 G 35 16.09 Overcast OVC110 20.2 -3.6 20% 75.77 0.0
02 18:15 SW 24 G 37 16.09 Overcast OVC110 20.1 -4.1 19% 75.79 0.0
02 17:55 SW 17 G 30 16.09 Overcast OVC110 19.7 -4.1 20% 75.82 0.0
02 17:35 SW 24 G 35 16.09 Overcast OVC110 19.9 -3.3 21% 75.84 0.0
02 17:15 SW 19 G 30 16.09 Overcast OVC110 19.8 -3.2 21% 75.87 0.0
02 16:55 SW 22 G 31 16.09 Overcast OVC110 20.1 -3.2 21% 75.87 0.0
02 16:35 SW 24 G 31 16.09 Overcast OVC110 20.7 -3.2 20% 75.9 0.0
02 16:15 SW 22 G 33 16.09 Overcast OVC110 20 -3.4 20% 75.95 0.0
02 15:55 SW 15 G 35 16.09 Overcast SCT075 OVC110 19.3 -3.8 21% 75.95 0.0
02 15:35 SW 33 G 41 16.09 Mostly Cloudy and Breezy SCT075 BKN110 19.3 -2.8 22% 76 0.0
02 15:15 SW 24 G 35 16.09 Partly Cloudy SCT120 20.3 -1.7 23% 76.02 0.0
02 14:55 SW 28 G 41 16.09 Fair CLR 20.3 -1.9 22% 76.02 0.0
02 14:35 SW 24 G 35 16.09 Fair CLR 20.8 -2.4 21% 76.05 0.0
02 14:15 SW 26 G 37 16.09 Fair CLR 20.1 -1.8 23% 76.07 0.0
02 13:55 W 26 G 39 16.09 Fair CLR 20 -2.1 23% 76.12 0.0
02 13:35 SW 26 G 39 16.09 Fair CLR 19.5 -1.9 24% 76.12 0.0
02 13:15 W 26 G 43 16.09 Fair CLR 19.2 -2.3 23% 76.15 0.0
02 12:55 W 28 G 43 16.09 Fair CLR 19.1 -2.3 19.2 4.8 23% 76.17 0.0
02 12:35 W 24 G 41 16.09 Fair CLR 18.9 -2.2 24% 76.2 0.0
02 12:15 W 31 G 43 16.09 Fair CLR 18.5 -1.8 25% 76.23 0.0
02 11:55 W 30 16.09 Fair CLR 18 -1.3 27% 76.25 0.0
02 11:35 W 28 G 35 16.09 Fair CLR 17.6 -1.2 28% 76.25 0.0
02 11:15 W 20 G 37 16.09 Fair CLR 16.8 -1 30% 76.28 0.0
02 10:55 W 24 16.09 Fair CLR 15.9 -1.1 31% 76.3 0.0
02 10:35 SW 24 G 35 16.09 Fair CLR 15.2 -1.6 32% 76.33 0.0
02 10:15 SW 22 G 31 16.09 Fair CLR 14.6 -2 32% 76.33 0.0
02 09:55 SW 24 G 33 16.09 Fair CLR 14.1 -2.1 33% 76.33 0.0
02 09:35 SW 26 G 33 16.09 Fair CLR 13.1 -2.8 33% 76.35 0.0
02 09:15 SW 28 G 35 16.09 Fair CLR 12.1 -3.2 35% 76.38 0.0
02 08:55 SW 20 G 37 16.09 Fair CLR 10.7 -3.2 38% 76.38 0.0
02 08:35 SW 24 G 35 16.09 Fair CLR 9.5 -2.8 42% 7 76.38 0.0
02 08:15 SW 17 16.09 Fair CLR 8.2 -2.5 47% 6 76.38 0.0
02 07:55 SW 13 16.09 Fair CLR 7.3 -2.5 50% 5 76.4 0.0
02 07:35 SW 17 16.09 Fair CLR 6.5 -2.8 52% 4 76.43 0.0
02 07:15 SW 13 16.09 Fair CLR 5.5 -2.6 56% 3 76.43 0.0
02 06:55 SW 13 16.09 Fair CLR 4.7 -2.7 4.7 2.5 59% 2 76.43 0.0
02 06:35 SW 13 16.09 Partly Cloudy SCT090 4.5 -2.6 60% 2 76.43 0.0
02 06:15 SW 11 16.09 Partly Cloudy SCT090 4.2 -2.5 62% 2 76.43 0.0
02 05:55 SW 17 16.09 Fair CLR 3.7 -2.5 64% 0 76.45 0.0
02 05:35 SW 13 16.09 Fair CLR 4 -2.5 63% 1 76.45 0.0
02 05:15 SW 13 16.09 Fair CLR 4 -2.3 64% 1 76.48 0.0
02 04:55 SW 15 16.09 Fair CLR 3.6 -2.2 66% 0 76.48 0.0
02 04:35 SW 13 16.09 Fair CLR 3.3 -2.3 67% 0 76.48 0.0
02 04:15 SW 11 16.09 Fair CLR 3.6 -2.2 66% 1 76.5 0.0
02 03:55 SW 11 16.09 Fair CLR 3.5 -2.1 67% 1 76.48 0.0
02 03:35 SW 7 16.09 Fair CLR 3.2 -2.2 68% 2 76.48 0.0
02 03:15 SW 9 16.09 Fair CLR 3.4 -2.3 67% 1 76.48 0.0
02 02:55 SW 9 16.09 Fair CLR 3 -2.5 68% 1 76.5 0.0
02 02:35 SW 9 16.09 Fair CLR 3.6 -2.5 65% 1 76.5 0.0
02 02:15 SW 7 16.09 Fair CLR 3.2 -2.2 68% 2 76.5 0.0
02 01:55 SW 9 16.09 Fair CLR 3.2 -2.1 69% 1 76.5 0.0
02 01:35 SW 7 16.09 Fair CLR 2.5 -2 73% 1 76.5 0.0
02 01:15 SW 7 16.09 Fair CLR 2.7 -2 72% 1 76.53 0.0
02 00:55 SW 7 16.09 Fair CLR 3.2 -2.1 11.5 1.7 69% 2 76.53 0.0
02 00:35 SW 9 16.09 Fair CLR 3.4 -2.2 67% 1 76.56 0.0
02 00:15 SW 9 16.09 Fair CLR 1.7 -1.5 80% -1 76.56 0.0
01 23:55 SW 6 16.09 Fair CLR 2.1 -1.6 77% 76.56 0.0
01 23:35 SW 7 16.09 Fair CLR 2 -1.5 78% 0 76.56 0.0
01 23:15 SW 6 16.09 Fair CLR 2.5 -1.6 75% 76.56 0.0
01 22:55 SW 6 16.09 Fair CLR 2.7 -1.5 74% 76.56 0.0
01 22:35 Calm 16.09 Fair CLR 3.1 -0.5 78% 76.56 0.0
01 22:15 Calm 16.09 Fair CLR 4.3 -0.2 73% 76.56 0.0
01 21:55 Calm 16.09 Fair CLR 5.5 -0.9 64% 76.53 0.0
01 21:35 Calm 16.09 Fair CLR 6.6 -1.7 56% 76.53 0.0
01 21:15 Calm 16.09 Fair CLR 7.3 -2.9 49% 76.5 0.0
01 20:55 Calm 16.09 Fair CLR 8.1 -3.9 43% 76.5 0.0
01 20:35 Calm 16.09 Fair CLR 8.8 -4.3 40% 76.5 0.0
01 20:15 N 6 16.09 Fair CLR 10 -4.8 35% 76.5 0.0
01 19:55 N 7 16.09 Fair CLR 10.7 -5.1 33% 76.5 0.0
01 19:35 N 13 16.09 Fair CLR 11.1 -4.8 33% 76.5 0.0
01 19:15 NW 11 16.09 Fair CLR 11.5 -4.8 32% 76.48 0.0
01 18:55 N 13 16.09 Fair CLR 11.5 -4.9 12.6 9.7 32% 76.48 0.0
01 18:35 N 19 16.09 Fair CLR 11.3 -5.2 31% 76.48 0.0
01 18:15 N 15 16.09 Partly Cloudy SCT060 12 -5.5 29% 76.5 0.0
01 17:55 N 19 16.09 Partly Cloudy SCT060 12.4 -4.7 30% 76.5 0.0
01 17:35 N 15 16.09 Partly Cloudy SCT060 12.3 -4.7 30% 76.5 0.0
01 17:15 N 7 16.09 Partly Cloudy SCT060 12.3 -4.9 30% 76.5 0.0
01 16:55 N 11 16.09 Fair CLR 12.2 -4.5 31% 76.5 0.0
01 16:35 N 17 16.09 Fair CLR 12 -4.6 31% 76.5 0.0
01 16:15 N 13 16.09 Fair CLR 11.8 -4.6 32% 76.5 0.0
01 15:55 N 17 16.09 Partly Cloudy SCT060 12 -4.3 32% 76.53 0.0
01 15:35 N 17 16.09 Partly Cloudy SCT060 12.3 -4.1 32% 76.53 0.0
01 15:15 N 17 G 28 16.09 Partly Cloudy SCT060 11.6 -4.4 33% 76.56 0.0
01 14:55 N 15 16.09 Partly Cloudy SCT050 10.8 -4.2 35% 76.56 0.0
01 14:35 N 13 G 33 16.09 Partly Cloudy SCT050 11.5 -3.6 35% 76.56 0.0
01 14:15 NW 6 16.09 Mostly Cloudy BKN050 10.5 -4.1 36% 76.56 0.0
01 13:55 N 11 G 30 16.09 Mostly Cloudy BKN050 10.1 -4.3 36% 76.56 0.0
01 13:35 N 11 G 30 16.09 Partly Cloudy SCT050 11 -3.9 35% 76.56 0.0
01 13:15 NW 20 G 28 16.09 Partly Cloudy SCT050 10.6 -4.1 36% 76.56 0.0
01 12:55 N 15 G 31 16.09 Mostly Cloudy BKN050 9.7 -3.4 10.1 0.6 40% 8 76.56 0.0
01 12:35 NE 15 G 26 16.09 Mostly Cloudy BKN050 9.7 -3.7 39% 8 76.56 0.0
01 12:15 N 19 16.09 Mostly Cloudy BKN048 9.4 -3.8 40% 7 76.58 0.0
01 11:55 N 17 16.09 Mostly Cloudy BKN046 9.3 -3.4 41% 7 76.58 0.0
Date Time (cdt) Wind (kph) Vis. (km) Weather Sky Cond. Air Dwpt Max. Min. Relative Humidity Wind Chill (°C) Heat Index (°C) altimeter (cm) sea level (mb) 1 hr 3 hr 6 hr
6 hour
Temperature (ºC) Pressure Precipitation (cm)